Rose Haven, Maryland
Current Conditions -  °F | °C
As of 6:54 AM on Monday 22 Dec 2014 (Local Time) from KNAK Reporting Station
Overcast Overcast  
Wind Chill: 33°   Ceiling: 5000
Heat Index: 33°   Visibility: 8mi
Dew Point: 27°   Wind: 3mph
Humidity: 78%   Direction: 30°NNE
Pressure: 30.3"   Gusts: NA
Location:  38.7189°N, 76.5397°W
Report Text: KNAK 221154Z AUTO 03003KT 8SM BKN050 OVC060 01/M03 A3030 RMK AO2 SLP262 T00061028 10006 21011 55002 $
Loading
Personal Weather Stations






























Interactive Weather Map New forecast layout! Learn more

10-Day Weather Forecast

Advertisements
Track Severe Weather on mobile